Time;durP1;ratioP1;P1;durP2;ratioP2;P2;SDS_P1;SDS_P2;PMS_P1;PMS_P2;Temp;Humidity;BMP_temperature;BMP_pressure;BME280_temperature;BME280_humidity;BME280_pressure;Samples;Min_cycle;Max_cycle;Signal;HPM_P1;HPM_P2
2022/11/24 00:01:30;;;;;;;7.73;5.33;;;;;;;7.83;68.00;93866.97;5004558;28;20190;-69
2022/11/24 00:04:01;;;;;;;7.60;4.80;;;;;;;7.84;68.17;93850.28;5014058;28;20316;-69
2022/11/24 00:06:28;;;;;;;6.47;4.57;;;;;;;7.82;67.84;93853.06;5008917;28;20219;-70
2022/11/24 00:08:55;;;;;;;6.30;4.77;;;;;;;7.91;67.76;93869.56;5007695;28;20256;-71
2022/11/24 00:11:25;;;;;;;6.27;5.30;;;;;;;8.03;67.46;93873.50;5011603;28;20199;-70
2022/11/24 00:13:50;;;;;;;9.20;5.90;;;;;;;8.05;67.10;93863.72;5004818;28;20183;-70
2022/11/24 00:16:22;;;;;;;7.00;6.00;;;;;;;7.88;67.82;93859.44;5002336;28;21795;-69
2022/11/24 00:18:49;;;;;;;8.10;5.23;;;;;;;7.56;69.02;93868.09;5009375;28;20653;-69
2022/11/24 00:21:17;;;;;;;10.60;5.70;;;;;;;7.71;68.71;93869.09;5008925;28;20195;-69
2022/11/24 00:23:43;;;;;;;8.30;5.23;;;;;;;7.81;68.72;93871.56;5004699;28;20202;-69
2022/11/24 00:26:10;;;;;;;6.67;4.40;;;;;;;7.92;68.04;93866.00;5009102;28;20742;-69
2022/11/24 00:28:36;;;;;;;8.07;4.33;;;;;;;8.00;67.57;93841.63;5001886;28;20207;-70
2022/11/24 00:31:03;;;;;;;5.80;3.93;;;;;;;8.05;67.65;93855.03;5007642;28;20577;-70
2022/11/24 00:33:29;;;;;;;5.37;3.70;;;;;;;8.06;67.29;93872.38;5025411;28;20198;-70
2022/11/24 00:35:58;;;;;;;7.50;3.50;;;;;;;8.19;66.38;93870.06;5040599;28;20242;-70
2022/11/24 00:38:24;;;;;;;3.90;3.03;;;;;;;8.24;67.10;93874.81;5026836;28;20193;-70
2022/11/24 00:40:50;;;;;;;4.40;3.03;;;;;;;8.28;66.10;93865.63;5023894;28;20204;-70
2022/11/24 00:43:16;;;;;;;3.67;3.20;;;;;;;8.33;66.22;93869.38;5027303;28;20220;-70
2022/11/24 00:45:42;;;;;;;5.70;3.60;;;;;;;8.32;66.13;93864.34;5040489;28;20186;-70
2022/11/24 00:48:08;;;;;;;6.20;3.77;;;;;;;8.28;66.13;93871.69;5030078;28;20197;-70
2022/11/24 00:50:34;;;;;;;4.77;3.80;;;;;;;8.16;66.76;93879.06;5030036;28;20208;-70
2022/11/24 00:52:59;;;;;;;6.10;3.80;;;;;;;8.16;66.35;93878.25;5043701;28;20182;-70
2022/11/24 00:55:24;;;;;;;4.53;3.70;;;;;;;8.14;66.04;93878.41;5027737;28;20219;-70
2022/11/24 00:57:50;;;;;;;8.90;4.23;;;;;;;8.02;66.78;93887.59;5029533;28;20193;-71
2022/11/24 01:00:16;;;;;;;5.87;4.50;;;;;;;7.96;66.78;93880.38;5028577;28;20196;-70
2022/11/24 01:02:42;;;;;;;6.87;4.20;;;;;;;7.98;67.03;93888.91;5026564;28;20264;-70
2022/11/24 01:05:08;;;;;;;6.93;4.37;;;;;;;8.08;66.65;93889.56;5030042;28;20193;-69
2022/11/24 01:07:33;;;;;;;5.87;4.40;;;;;;;8.00;67.01;93886.94;5029907;28;20247;-68
2022/11/24 01:09:59;;;;;;;5.97;4.50;;;;;;;7.88;67.17;93881.19;5024750;28;20194;-69
2022/11/24 01:12:24;;;;;;;5.53;3.80;;;;;;;7.92;67.46;93884.31;5027797;28;20182;-69
2022/11/24 01:14:50;;;;;;;6.80;3.90;;;;;;;7.91;67.20;93880.91;5028744;28;20190;-68
2022/11/24 01:17:15;;;;;;;7.00;4.30;;;;;;;7.86;67.68;93883.19;5024643;28;20182;-69
2022/11/24 01:19:40;;;;;;;6.10;4.50;;;;;;;7.82;67.72;93879.22;5025862;28;20194;-69
2022/11/24 01:22:06;;;;;;;5.23;4.00;;;;;;;7.83;67.41;93883.50;5024689;28;20243;-69
2022/11/24 01:24:31;;;;;;;5.40;4.00;;;;;;;7.72;67.68;93886.41;5042304;28;20181;-70
2022/11/24 01:26:57;;;;;;;5.00;4.17;;;;;;;7.78;67.47;93880.56;5027567;28;20221;-69
2022/11/24 01:29:22;;;;;;;5.37;3.67;;;;;;;7.75;67.69;93875.63;5040320;28;20194;-69
2022/11/24 01:31:48;;;;;;;4.73;3.80;;;;;;;7.57;68.58;93874.97;5025026;28;20328;-69
2022/11/24 01:34:13;;;;;;;6.27;4.10;;;;;;;7.70;68.18;93883.16;5027391;28;20201;-69
2022/11/24 01:36:38;;;;;;;5.77;3.70;;;;;;;7.78;67.99;93879.72;5029217;28;20194;-69
2022/11/24 01:39:04;;;;;;;4.90;3.77;;;;;;;7.91;67.22;93880.06;5026580;28;20248;-70
2022/11/24 01:41:32;;;;;;;7.27;4.07;;;;;;;8.06;67.00;93890.69;5031064;28;20272;-69
2022/11/24 01:43:57;;;;;;;5.53;4.10;;;;;;;7.95;67.45;93897.88;5023530;28;20217;-69
2022/11/24 01:46:23;;;;;;;8.17;4.10;;;;;;;7.84;67.79;93898.22;5027744;28;20242;-71
2022/11/24 01:48:57;;;;;;;5.77;4.40;;;;;;;7.69;68.39;93897.22;5029587;28;20239;-70
2022/11/24 01:51:25;;;;;;;6.30;3.90;;;;;;;7.79;68.40;93897.06;5030555;28;20188;-70
2022/11/24 01:54:27;;;;;;;8.17;3.83;;;;;;;7.74;68.54;93889.69;5026317;28;20185;-69
2022/11/24 01:56:57;;;;;;;9.53;4.07;;;;;;;7.71;68.78;93883.00;5024283;28;20190;-70
2022/11/24 01:59:24;;;;;;;5.07;4.07;;;;;;;7.78;68.54;93887.56;5036611;28;20234;-70
2022/11/24 02:01:51;;;;;;;6.43;4.53;;;;;;;7.78;68.64;93883.19;5024072;28;20189;-69
2022/11/24 02:04:22;;;;;;;5.67;4.07;;;;;;;7.81;68.34;93884.66;5022324;28;20243;-70
2022/11/24 02:06:49;;;;;;;6.40;3.80;;;;;;;7.74;68.59;93884.47;5027548;28;20190;-69
2022/11/24 02:09:20;;;;;;;8.37;4.33;;;;;;;7.73;68.81;93886.28;5042327;28;20216;-70
2022/11/24 02:11:46;;;;;;;5.43;3.90;;;;;;;7.69;68.95;93889.38;5021923;28;20198;-69
2022/11/24 02:14:15;;;;;;;6.33;4.10;;;;;;;7.57;69.49;93885.44;5025604;28;20188;-70
2022/11/24 02:16:47;;;;;;;6.17;4.30;;;;;;;7.67;69.64;93888.69;5044846;28;20255;-70
2022/11/24 02:19:22;;;;;;;6.33;4.13;;;;;;;7.77;69.21;93888.56;5027006;28;20210;-69
2022/11/24 02:21:48;;;;;;;6.67;4.30;;;;;;;7.82;68.98;93888.88;5026211;28;20280;-70
2022/11/24 02:24:34;;;;;;;6.23;4.00;;;;;;;7.83;68.76;93888.75;5032949;28;20304;-70
2022/11/24 02:27:00;;;;;;;5.63;3.93;;;;;;;8.01;68.25;93895.59;5024711;28;20201;-70
2022/11/24 02:29:25;;;;;;;5.90;3.70;;;;;;;7.99;67.80;93894.94;5021817;28;20186;-70
2022/11/24 02:31:58;;;;;;;5.10;3.77;;;;;;;7.90;67.88;93888.91;5018067;28;20235;-70
2022/11/24 02:34:23;;;;;;;5.83;3.87;;;;;;;7.81;68.47;93895.13;5005734;28;20207;-70
2022/11/24 02:36:48;;;;;;;4.83;4.00;;;;;;;7.72;69.15;93889.03;5022639;28;20252;-66
2022/11/24 02:39:15;;;;;;;6.07;3.50;;;;;;;7.78;68.86;93896.25;5007445;28;20194;-66
2022/11/24 02:41:51;;;;;;;6.80;3.80;;;;;;;7.70;69.35;93898.88;5005403;28;20187;-66
2022/11/24 02:44:19;;;;;;;6.13;4.10;;;;;;;7.67;69.44;93899.16;5004523;28;20201;-65
2022/11/24 02:46:44;;;;;;;4.73;4.00;;;;;;;7.59;69.96;93901.78;5005820;28;20195;-65
2022/11/24 02:49:09;;;;;;;9.03;4.93;;;;;;;7.60;70.02;93909.47;4999929;28;20563;-65
2022/11/24 02:51:35;;;;;;;5.27;4.10;;;;;;;7.58;70.41;93915.84;5006837;28;20183;-65
2022/11/24 02:54:00;;;;;;;10.23;4.30;;;;;;;7.74;69.71;93908.81;5005437;28;20213;-65
2022/11/24 02:56:26;;;;;;;9.07;4.70;;;;;;;7.64;69.69;93905.53;5017480;28;20294;-65
2022/11/24 02:58:51;;;;;;;6.43;4.13;;;;;;;7.67;69.45;93888.69;5004000;28;20198;-65
2022/11/24 03:01:17;;;;;;;5.20;4.70;;;;;;;7.78;69.01;93901.50;4997637;28;20199;-65
2022/11/24 03:03:42;;;;;;;6.23;4.37;;;;;;;7.71;69.03;93890.03;4997098;28;20294;-65
2022/11/24 03:06:08;;;;;;;8.90;4.70;;;;;;;7.66;68.99;93897.53;4996334;28;20262;-65
2022/11/24 03:08:33;;;;;;;9.80;4.27;;;;;;;7.51;69.77;93906.03;5002607;28;20201;-65
2022/11/24 03:11:01;;;;;;;6.83;4.60;;;;;;;7.56;69.85;93905.53;5003084;28;20234;-65
2022/11/24 03:13:26;;;;;;;6.20;4.50;;;;;;;7.48;69.66;93911.59;5002610;28;20210;-67
2022/11/24 03:15:52;;;;;;;6.97;4.60;;;;;;;7.54;69.53;93915.34;5006462;28;20222;-65
2022/11/24 03:18:17;;;;;;;6.77;4.80;;;;;;;7.53;69.53;93905.03;5000065;28;20203;-66
2022/11/24 03:20:43;;;;;;;7.50;5.53;;;;;;;7.76;68.67;93913.09;4996335;28;20190;-65
2022/11/24 03:23:08;;;;;;;7.23;5.20;;;;;;;7.56;68.71;93910.75;5002246;28;20203;-65
2022/11/24 03:25:34;;;;;;;6.70;5.20;;;;;;;7.48;69.36;93916.81;5007880;28;20278;-65
2022/11/24 03:27:59;;;;;;;10.53;5.90;;;;;;;7.42;69.77;93912.19;5006357;28;20194;-65
2022/11/24 03:30:24;;;;;;;8.73;6.13;;;;;;;7.26;70.32;93918.19;5005998;28;20266;-65
2022/11/24 03:32:52;;;;;;;6.80;5.93;;;;;;;7.30;70.66;93923.94;4999402;28;20231;-65
2022/11/24 03:35:18;;;;;;;6.83;6.10;;;;;;;7.36;70.62;93923.31;5004907;28;20198;-65
2022/11/24 03:37:44;;;;;;;6.20;5.23;;;;;;;7.44;70.17;93936.41;5002980;28;20195;-65
2022/11/24 03:40:09;;;;;;;7.27;5.50;;;;;;;7.49;70.05;93939.38;5000255;28;20201;-66
2022/11/24 03:42:35;;;;;;;7.60;5.80;;;;;;;7.46;70.58;93934.44;5000392;28;20286;-69
2022/11/24 03:45:00;;;;;;;9.57;6.63;;;;;;;7.40;70.78;93940.31;5000596;28;20187;-65
2022/11/24 03:47:25;;;;;;;9.37;6.53;;;;;;;7.38;71.09;93942.28;5002726;28;20187;-66
2022/11/24 03:49:51;;;;;;;9.03;6.40;;;;;;;7.56;70.23;93951.78;5003644;28;20195;-65
2022/11/24 03:52:16;;;;;;;11.00;5.57;;;;;;;7.69;70.07;93954.78;5005921;28;20240;-65
2022/11/24 03:54:42;;;;;;;6.53;4.97;;;;;;;7.61;69.73;93952.94;5000107;28;20245;-65
2022/11/24 03:57:07;;;;;;;5.83;5.23;;;;;;;7.58;69.92;93962.94;5000869;28;20241;-65
2022/11/24 03:59:33;;;;;;;10.13;5.10;;;;;;;7.51;70.30;93958.34;5004955;28;20368;-65
2022/11/24 04:01:58;;;;;;;9.47;5.30;;;;;;;7.55;70.47;93955.41;5004846;28;20282;-65
2022/11/24 04:04:23;;;;;;;10.13;5.80;;;;;;;7.56;70.40;93963.06;5002807;28;20258;-65
2022/11/24 04:06:49;;;;;;;11.37;6.77;;;;;;;7.76;70.14;93960.19;5008012;28;20257;-65
2022/11/24 04:09:14;;;;;;;9.27;6.33;;;;;;;7.55;70.56;93965.88;5002752;28;20191;-65
2022/11/24 04:14:24;;;;;;;12.17;6.67;;;;;;;7.54;70.70;93978.13;5005193;28;20206;-66
2022/11/24 04:16:49;;;;;;;7.87;6.03;;;;;;;7.59;70.48;93975.03;5002104;28;20289;-66
2022/11/24 04:19:15;;;;;;;8.57;6.90;;;;;;;7.50;70.95;93971.56;5004110;28;20286;-65
2022/11/24 04:21:40;;;;;;;9.20;7.20;;;;;;;7.50;71.05;93979.41;5000247;28;20187;-65
2022/11/24 04:24:06;;;;;;;8.93;6.50;;;;;;;7.59;70.79;93975.88;5003895;28;20286;-65
2022/11/24 04:26:31;;;;;;;10.37;6.70;;;;;;;7.54;70.50;93982.53;5002406;28;20206;-65
2022/11/24 04:28:57;;;;;;;11.83;6.97;;;;;;;7.62;70.45;93987.81;5000509;28;20246;-65
2022/11/24 04:31:22;;;;;;;9.33;6.40;;;;;;;7.70;70.16;93993.88;5001441;28;20249;-65
2022/11/24 04:33:48;;;;;;;9.90;7.27;;;;;;;7.82;69.49;93988.34;5002613;28;20183;-65
2022/11/24 04:36:13;;;;;;;9.57;6.60;;;;;;;7.55;70.72;93992.84;4993520;28;20226;-65
2022/11/24 04:38:39;;;;;;;8.43;7.43;;;;;;;7.65;70.28;93990.09;5015865;28;20195;-65
2022/11/24 04:41:04;;;;;;;9.70;7.63;;;;;;;7.65;69.81;93992.72;5017528;28;20315;-65
2022/11/24 04:43:31;;;;;;;9.63;7.27;;;;;;;7.77;69.22;93995.84;4998449;28;20211;-65
2022/11/24 04:46:00;;;;;;;11.10;7.33;;;;;;;7.61;69.81;93991.38;4999184;28;20183;-64
2022/11/24 04:48:26;;;;;;;11.33;7.57;;;;;;;7.58;70.24;93994.31;5019626;28;20332;-65
2022/11/24 04:50:51;;;;;;;9.00;7.73;;;;;;;7.72;70.09;93993.69;5004575;28;20192;-65
2022/11/24 04:53:17;;;;;;;11.93;7.67;;;;;;;7.65;70.07;93996.16;5018176;28;20237;-65
2022/11/24 04:55:42;;;;;;;10.20;7.50;;;;;;;7.73;69.84;93993.56;4996757;28;20278;-65
2022/11/24 04:58:09;;;;;;;13.00;8.67;;;;;;;7.66;69.83;93986.50;5019707;28;20194;-65
2022/11/24 05:00:35;;;;;;;12.03;8.97;;;;;;;7.71;70.50;93998.13;5002937;28;20282;-65
2022/11/24 05:03:05;;;;;;;12.20;8.93;;;;;;;7.79;69.77;94002.56;5001110;28;20290;-65
2022/11/24 05:05:31;;;;;;;10.43;8.53;;;;;;;7.62;70.49;94009.56;5005573;28;20228;-65
2022/11/24 05:08:00;;;;;;;11.50;9.27;;;;;;;7.73;70.27;93997.97;5005435;28;20273;-65
2022/11/24 05:10:35;;;;;;;13.87;9.07;;;;;;;7.67;70.78;94001.19;5001347;28;20194;-65
2022/11/24 05:13:03;;;;;;;13.33;9.37;;;;;;;7.68;70.96;94008.91;5000586;28;20222;-65
2022/11/24 05:15:29;;;;;;;12.00;8.30;;;;;;;7.71;70.93;94005.97;5018487;28;20199;-66
2022/11/24 05:17:54;;;;;;;10.83;8.97;;;;;;;7.87;70.60;94017.47;5001252;28;20306;-66
2022/11/24 05:20:20;;;;;;;13.43;8.17;;;;;;;7.89;70.26;94010.28;5005532;28;20218;-66
2022/11/24 05:22:46;;;;;;;13.77;8.60;;;;;;;7.71;70.70;94011.19;4999357;28;20306;-66
2022/11/24 05:25:13;;;;;;;12.33;8.07;;;;;;;7.69;71.34;94014.94;5014707;28;20226;-66
2022/11/24 05:27:38;;;;;;;14.20;8.50;;;;;;;7.65;71.40;94009.22;5005476;28;20194;-65
2022/11/24 05:30:04;;;;;;;13.80;8.47;;;;;;;7.60;71.58;94013.31;4999670;28;20194;-65
2022/11/24 05:32:30;;;;;;;12.23;7.73;;;;;;;7.58;71.32;94015.25;5009553;28;20235;-65
2022/11/24 05:34:57;;;;;;;10.33;8.67;;;;;;;7.59;71.51;94017.72;5005965;28;20187;-66
2022/11/24 05:37:24;;;;;;;11.73;8.80;;;;;;;7.53;71.41;94023.56;5013576;28;20201;-65
2022/11/24 05:39:50;;;;;;;11.17;8.47;;;;;;;7.55;71.49;94023.41;5009840;28;20248;-65
2022/11/24 05:44:59;;;;;;;16.80;9.33;;;;;;;7.60;71.38;94031.63;5012836;28;20201;-68
2022/11/24 05:47:25;;;;;;;16.07;9.67;;;;;;;7.60;71.54;94029.00;5009169;28;20187;-66
2022/11/24 05:49:50;;;;;;;18.27;9.67;;;;;;;7.69;71.23;94028.03;5006759;28;20194;-67
2022/11/24 05:52:16;;;;;;;17.70;8.73;;;;;;;7.68;71.54;94035.06;4999752;28;20191;-66
2022/11/24 05:54:42;;;;;;;21.20;10.13;;;;;;;7.86;71.17;94039.41;5019227;28;20217;-66
2022/11/24 05:57:08;;;;;;;13.93;9.77;;;;;;;7.91;70.31;94034.47;5006676;28;20195;-67
2022/11/24 05:59:33;;;;;;;12.43;8.90;;;;;;;7.76;70.86;94036.09;5021639;28;20187;-65
2022/11/24 06:01:59;;;;;;;13.80;9.27;;;;;;;7.77;71.00;94038.53;5011517;28;20201;-65
2022/11/24 06:04:24;;;;;;;16.77;10.43;;;;;;;7.83;70.96;94034.44;5011048;28;20269;-65
2022/11/24 06:06:50;;;;;;;16.77;9.40;;;;;;;7.88;70.45;94042.66;5011961;28;20250;-65
2022/11/24 06:09:16;;;;;;;11.67;8.90;;;;;;;7.81;70.39;94047.72;5008549;28;20258;-65
2022/11/24 06:11:42;;;;;;;12.20;9.33;;;;;;;7.73;70.67;94050.31;5001612;28;20270;-66
2022/11/24 06:14:09;;;;;;;12.93;9.73;;;;;;;7.63;72.04;94055.66;5006849;28;20191;-65
2022/11/24 06:16:35;;;;;;;16.77;11.40;;;;;;;8.00;71.30;94061.53;5003386;28;20208;-65
2022/11/24 06:19:00;;;;;;;13.93;9.40;;;;;;;8.14;70.39;94047.81;5025414;28;20259;-66
2022/11/24 06:21:26;;;;;;;16.70;10.33;;;;;;;8.09;70.59;94045.66;5004565;28;20187;-63
2022/11/24 06:23:52;;;;;;;20.67;10.80;;;;;;;7.79;72.70;94057.50;5008330;28;20219;-65
2022/11/24 06:26:17;;;;;;;21.23;10.33;;;;;;;8.10;71.17;94054.31;5012250;28;20195;-65
2022/11/24 06:28:43;;;;;;;17.63;9.43;;;;;;;7.62;72.91;94054.03;5003999;28;20186;-65
2022/11/24 06:31:09;;;;;;;17.07;9.57;;;;;;;7.62;73.39;94058.44;5015767;28;20255;-66
2022/11/24 06:33:36;;;;;;;19.17;10.23;;;;;;;7.80;73.03;94066.19;5031413;28;20332;-65
2022/11/24 06:36:04;;;;;;;14.13;10.00;;;;;;;7.78;72.73;94074.22;5023644;28;20232;-66
2022/11/24 06:38:31;;;;;;;13.43;9.10;;;;;;;7.95;72.53;94077.69;5027187;28;20174;-65
2022/11/24 06:41:00;;;;;;;16.77;9.87;;;;;;;8.03;71.87;94074.28;5045860;28;20206;-66
2022/11/24 06:43:27;;;;;;;15.40;9.47;;;;;;;8.16;71.11;94093.78;5027983;28;20289;-67
2022/11/24 06:45:52;;;;;;;16.90;10.23;;;;;;;8.23;70.60;94098.38;5043257;28;20196;-66
2022/11/24 06:48:18;;;;;;;16.90;10.80;;;;;;;8.24;70.87;94100.84;5023928;28;20186;-67
2022/11/24 06:50:43;;;;;;;17.63;11.37;;;;;;;8.33;69.92;94102.50;5026984;28;20257;-66
2022/11/24 06:53:09;;;;;;;19.87;10.87;;;;;;;8.36;69.84;94104.78;5029526;28;20185;-66
2022/11/24 06:55:34;;;;;;;18.57;10.90;;;;;;;8.33;69.75;94110.34;5022333;28;20192;-67
2022/11/24 06:58:00;;;;;;;11.97;10.23;;;;;;;8.27;70.07;94116.25;5027971;28;20217;-65
2022/11/24 07:00:28;;;;;;;16.63;10.27;;;;;;;8.34;69.89;94119.03;5027230;28;20201;-65
2022/11/24 07:02:53;;;;;;;18.13;11.53;;;;;;;8.36;69.74;94120.50;5031112;28;20307;-65
2022/11/24 07:05:19;;;;;;;16.77;11.63;;;;;;;8.38;70.21;94122.97;5028202;28;20258;-65
2022/11/24 07:07:44;;;;;;;21.33;12.33;;;;;;;8.37;70.20;94126.59;5031506;28;20312;-64
2022/11/24 07:10:09;;;;;;;20.00;13.77;;;;;;;8.39;70.07;94129.88;5028859;28;20198;-66
2022/11/24 07:12:35;;;;;;;19.80;13.10;;;;;;;8.53;69.62;94131.09;5029805;28;20196;-66
2022/11/24 07:15:00;;;;;;;18.90;14.67;;;;;;;8.30;70.18;94136.06;5046959;28;20226;-66
2022/11/24 07:17:26;;;;;;;22.87;14.53;;;;;;;8.43;69.75;94148.75;5041253;28;20269;-65
2022/11/24 07:19:51;;;;;;;20.07;14.83;;;;;;;8.40;69.54;94142.03;5024391;28;20214;-65
2022/11/24 07:22:17;;;;;;;16.80;13.93;;;;;;;8.48;69.17;94146.47;5028653;28;20268;-66
2022/11/24 07:24:42;;;;;;;21.30;14.10;;;;;;;8.66;68.50;94157.66;5028562;28;20190;-65
2022/11/24 07:27:07;;;;;;;21.93;13.50;;;;;;;8.70;68.58;94150.25;5029566;28;20272;-65
2022/11/24 07:29:33;;;;;;;18.27;12.17;;;;;;;8.61;68.66;94157.31;5031794;28;20220;-65
2022/11/24 07:31:59;;;;;;;14.13;9.70;;;;;;;8.80;67.39;94156.19;5012813;28;20246;-65
2022/11/24 07:34:24;;;;;;;10.07;8.43;;;;;;;8.78;67.11;94160.75;5005968;28;20195;-65
2022/11/24 07:36:50;;;;;;;9.90;8.23;;;;;;;8.81;66.75;94166.50;5003658;28;20210;-68
2022/11/24 07:39:15;;;;;;;10.97;8.00;;;;;;;8.92;65.83;94162.72;5000842;28;20206;-67
2022/11/24 07:41:41;;;;;;;12.63;9.00;;;;;;;8.95;66.20;94169.47;5000422;28;20277;-64
2022/11/24 07:44:06;;;;;;;12.57;8.73;;;;;;;8.98;65.91;94175.22;4982367;28;20203;-64
2022/11/24 07:46:31;;;;;;;12.20;9.00;;;;;;;8.95;66.04;94172.06;4994763;28;20234;-68
2022/11/24 07:48:57;;;;;;;15.70;9.73;;;;;;;8.93;66.10;94171.44;4994202;28;20198;-65
2022/11/24 07:51:23;;;;;;;10.47;9.37;;;;;;;8.90;66.05;94176.97;4995416;28;20711;-65
2022/11/24 07:53:48;;;;;;;9.93;9.00;;;;;;;8.83;66.40;94184.69;4994948;28;20261;-65
2022/11/24 07:56:13;;;;;;;12.17;8.93;;;;;;;8.84;66.75;94186.31;4998084;28;20253;-64
2022/11/24 07:58:39;;;;;;;11.30;9.20;;;;;;;8.81;66.41;94192.69;5000339;28;20237;-63
2022/11/24 08:01:17;;;;;;;10.93;9.77;;;;;;;8.68;67.06;94197.59;4999019;28;20278;-66
2022/11/24 08:03:44;;;;;;;10.30;9.30;;;;;;;8.59;67.03;94203.81;4995720;28;20233;-66
2022/11/24 08:06:11;;;;;;;11.20;10.10;;;;;;;8.37;67.14;94199.94;5000329;28;20233;-64
2022/11/24 08:08:36;;;;;;;10.23;9.23;;;;;;;8.11;67.68;94210.47;4986688;28;20207;-65
2022/11/24 08:11:20;;;;;;;10.10;8.97;;;;;;;8.09;68.50;94228.13;5001302;28;20191;-65
2022/11/24 08:13:46;;;;;;;10.00;9.10;;;;;;;8.10;68.13;94227.13;4997252;28;20195;-64
2022/11/24 08:16:18;;;;;;;11.87;9.80;;;;;;;8.15;68.27;94233.56;4996232;28;20198;-67
2022/11/24 08:18:49;;;;;;;9.73;8.80;;;;;;;8.10;68.22;94229.75;5000385;28;20254;-65
2022/11/24 08:21:15;;;;;;;10.23;9.00;;;;;;;8.10;67.87;94229.75;4993047;28;20187;-67
2022/11/24 08:23:40;;;;;;;10.30;9.20;;;;;;;8.22;67.45;94236.38;4997049;28;20233;-66
2022/11/24 08:26:09;;;;;;;9.30;8.40;;;;;;;8.05;67.72;94240.72;4999211;28;20203;-64
2022/11/24 08:28:35;;;;;;;8.30;7.50;;;;;;;7.99;67.52;94240.50;5006850;28;20187;-65
2022/11/24 08:31:05;;;;;;;9.40;8.53;;;;;;;7.88;68.31;94242.38;4997837;28;20306;-66
2022/11/24 08:33:31;;;;;;;10.03;8.73;;;;;;;8.03;67.74;94245.28;5023203;28;20182;-66
2022/11/24 08:36:08;;;;;;;9.30;8.50;;;;;;;7.95;67.79;94261.75;5025593;28;20216;-66
2022/11/24 08:38:34;;;;;;;10.23;9.07;;;;;;;7.89;68.10;94257.13;5024337;28;20190;-64
2022/11/24 08:41:05;;;;;;;10.23;8.77;;;;;;;7.93;67.94;94262.88;5028836;28;20245;-64
2022/11/24 08:43:32;;;;;;;9.57;8.57;;;;;;;7.87;68.00;94261.69;5022913;28;20210;-64
2022/11/24 08:45:59;;;;;;;8.87;7.50;;;;;;;7.79;67.72;94269.50;5041320;28;20190;-64
2022/11/24 08:48:25;;;;;;;7.63;6.93;;;;;;;7.81;67.72;94283.25;5027670;28;20189;-65
2022/11/24 08:50:51;;;;;;;7.13;6.43;;;;;;;7.70;67.65;94270.44;5040747;28;20182;-67
2022/11/24 08:53:16;;;;;;;6.57;5.90;;;;;;;7.57;67.37;94280.47;5041199;28;20213;-64
2022/11/24 08:55:41;;;;;;;9.27;6.50;;;;;;;7.55;67.78;94279.78;5025636;28;20182;-65
2022/11/24 08:58:07;;;;;;;8.57;6.90;;;;;;;7.56;67.98;94287.47;5027629;28;20224;-64
2022/11/24 09:00:32;;;;;;;9.57;6.40;;;;;;;7.62;68.01;94284.28;5028328;28;20424;-64
2022/11/24 09:02:58;;;;;;;7.07;6.40;;;;;;;7.45;68.57;94283.28;5024450;28;20457;-65
2022/11/24 09:05:24;;;;;;;4.43;3.63;;;;;;;7.43;67.66;94285.25;5018448;28;20260;-66
2022/11/24 09:07:50;;;;;;;4.63;3.80;;;;;;;7.66;66.94;94292.63;5025220;28;20182;-66
2022/11/24 09:10:15;;;;;;;5.63;4.80;;;;;;;7.74;67.82;94292.69;5026058;28;20240;-66
2022/11/24 09:12:43;;;;;;;4.40;4.00;;;;;;;7.73;67.53;94291.88;5025475;28;20189;-67
2022/11/24 09:15:09;;;;;;;5.07;4.30;;;;;;;7.78;67.78;94286.19;5022780;28;20189;-66
2022/11/24 09:17:35;;;;;;;4.60;4.20;;;;;;;7.86;66.92;94288.88;5027139;28;20185;-68
2022/11/24 09:20:01;;;;;;;3.83;3.43;;;;;;;7.99;66.29;94285.00;5034076;28;20186;-67
2022/11/24 09:22:28;;;;;;;3.63;3.23;;;;;;;7.97;66.20;94293.03;5023048;28;20190;-67
2022/11/24 09:24:54;;;;;;;6.60;3.93;;;;;;;7.98;65.71;94283.38;5040994;28;20228;-66
2022/11/24 09:27:19;;;;;;;4.07;3.50;;;;;;;7.99;65.36;94288.44;5019572;28;20221;-67
2022/11/24 09:29:44;;;;;;;3.50;2.93;;;;;;;8.04;64.71;94299.28;5024267;28;20201;-66
2022/11/24 09:32:10;;;;;;;3.20;2.90;;;;;;;8.01;64.17;94298.75;5005960;28;20237;-66
2022/11/24 09:34:35;;;;;;;3.37;2.53;;;;;;;8.03;63.65;94287.16;5001046;28;20198;-68
2022/11/24 09:37:01;;;;;;;3.33;2.63;;;;;;;8.08;63.72;94284.91;5004220;28;20535;-67
2022/11/24 09:39:26;;;;;;;4.03;3.37;;;;;;;8.19;63.22;94302.16;5006160;28;20333;-67
2022/11/24 09:42:27;;;;;;;4.53;2.60;;;;;;;8.13;62.80;94300.97;4998922;28;20277;-65
2022/11/24 09:45:10;;;;;;;2.80;2.50;;;;;;;7.99;62.55;94296.28;4948043;28;20397;-65
2022/11/24 09:48:02;;;;;;;4.37;2.90;;;;;;;8.13;62.96;94303.59;4949709;28;20208;-65
2022/11/24 09:50:36;;;;;;;3.03;2.00;;;;;;;8.04;62.46;94301.88;4950352;28;20186;-66
2022/11/24 09:53:31;;;;;;;2.90;2.07;;;;;;;7.91;61.63;94298.84;4931179;28;20353;-67
2022/11/24 09:56:11;;;;;;;3.23;1.70;;;;;;;7.95;61.17;94297.59;4955237;28;20193;-64
2022/11/24 09:58:47;;;;;;;1.70;1.30;;;;;;;8.04;61.13;94304.50;4930017;29;20197;-64
2022/11/24 10:01:29;;;;;;;1.60;1.50;;;;;;;8.11;60.67;94299.50;4932702;29;20201;-64
2022/11/24 10:03:55;;;;;;;1.57;1.47;;;;;;;7.89;60.21;94304.25;4930502;29;20212;-63
2022/11/24 10:06:26;;;;;;;3.43;1.50;;;;;;;7.90;60.31;94300.66;4950416;29;20263;-63
2022/11/24 10:09:04;;;;;;;1.80;1.60;;;;;;;8.04;59.29;94311.53;4932232;28;20256;-64
2022/11/24 10:11:57;;;;;;;1.67;1.57;;;;;;;8.00;60.07;94320.69;4949089;28;20256;-64
2022/11/24 10:14:25;;;;;;;2.73;1.30;;;;;;;7.94;59.38;94317.72;4948220;28;20259;-65
2022/11/24 10:17:11;;;;;;;2.60;1.60;;;;;;;8.10;59.37;94308.31;4951542;28;20426;-65
2022/11/24 10:20:15;;;;;;;2.43;2.00;;;;;;;8.10;59.23;94309.16;4989810;28;20209;-64
2022/11/24 10:22:57;;;;;;;2.73;2.07;;;;;;;7.96;59.42;94301.84;4944285;28;20217;-64
2022/11/24 10:25:22;;;;;;;2.63;2.13;;;;;;;8.08;58.56;94308.47;4962501;28;20215;-64
2022/11/24 10:28:07;;;;;;;3.80;1.90;;;;;;;8.09;57.79;94311.91;4951810;28;20192;-64
2022/11/24 10:30:32;;;;;;;2.17;1.97;;;;;;;7.68;58.68;94311.63;4954729;28;20251;-63
2022/11/24 10:33:07;;;;;;;2.57;2.00;;;;;;;7.69;58.88;94314.06;4980097;28;20254;-65
2022/11/24 10:35:39;;;;;;;3.23;2.07;;;;;;;7.67;58.29;94317.81;4985933;28;20193;-66
2022/11/24 10:38:24;;;;;;;2.40;2.20;;;;;;;7.64;59.09;94308.47;4977466;28;20272;-67
2022/11/24 10:40:58;;;;;;;1.60;1.50;;;;;;;7.51;58.71;94303.63;4981921;28;20204;-65
2022/11/24 10:43:27;;;;;;;2.17;1.97;;;;;;;7.43;59.18;94315.81;4985405;28;20216;-64
2022/11/24 10:45:58;;;;;;;1.83;1.73;;;;;;;7.43;59.42;94318.41;4984675;28;20203;-65
2022/11/24 10:48:26;;;;;;;1.90;1.67;;;;;;;7.40;59.33;94303.03;4965204;28;20204;-62
2022/11/24 10:50:56;;;;;;;2.03;1.80;;;;;;;7.25;58.70;94292.28;4968243;28;20278;-65
2022/11/24 10:53:34;;;;;;;2.10;1.90;;;;;;;7.32;59.02;94302.97;4982127;28;20192;-67
2022/11/24 10:56:03;;;;;;;4.33;2.23;;;;;;;7.46;58.34;94297.22;4973461;28;20207;-66
2022/11/24 10:58:36;;;;;;;2.67;2.20;;;;;;;7.62;57.76;94302.59;5003664;28;20210;-64
2022/11/24 11:01:14;;;;;;;5.20;3.00;;;;;;;7.67;57.69;94313.41;5019127;28;20195;-65
2022/11/24 11:03:48;;;;;;;2.63;2.43;;;;;;;7.80;56.98;94312.19;5025306;28;20241;-64
2022/11/24 11:06:22;;;;;;;3.90;2.60;;;;;;;7.88;57.01;94314.88;5027167;28;20185;-64
2022/11/24 11:08:47;;;;;;;2.93;2.70;;;;;;;8.11;56.22;94304.72;5014661;28;20195;-65
2022/11/24 11:11:22;;;;;;;2.80;2.60;;;;;;;8.15;56.19;94306.03;5018963;28;20545;-65
2022/11/24 11:13:52;;;;;;;4.07;3.17;;;;;;;8.29;55.40;94299.44;5023794;28;20182;-64
2022/11/24 11:16:41;;;;;;;3.23;2.93;;;;;;;8.04;55.91;94304.50;5014232;28;20197;-64
2022/11/24 11:19:35;;;;;;;5.70;3.57;;;;;;;8.29;55.49;94312.53;5030038;28;20285;-64
2022/11/24 11:22:09;;;;;;;4.93;4.30;;;;;;;8.36;55.84;94322.22;5024587;28;20198;-65
2022/11/24 11:24:37;;;;;;;4.20;3.77;;;;;;;8.46;55.43;94319.53;5024496;28;20270;-64
2022/11/24 11:27:15;;;;;;;3.40;3.03;;;;;;;8.08;56.08;94329.41;5007001;28;20221;-64
2022/11/24 11:29:40;;;;;;;3.77;3.47;;;;;;;8.03;56.43;94318.59;5021557;28;20245;-64
2022/11/24 11:32:15;;;;;;;4.40;4.00;;;;;;;8.02;56.60;94318.72;5030938;28;20345;-64
2022/11/24 11:34:41;;;;;;;5.30;4.20;;;;;;;7.87;56.91;94319.28;5019612;28;20197;-65
2022/11/24 11:37:11;;;;;;;5.73;4.60;;;;;;;7.85;56.80;94331.69;5019095;28;20482;-64
2022/11/24 11:39:41;;;;;;;4.43;4.03;;;;;;;7.66;57.09;94331.88;5018694;28;20190;-65
2022/11/24 11:42:18;;;;;;;4.30;3.90;;;;;;;7.61;57.08;94321.84;5021962;28;20324;-65
2022/11/24 11:44:59;;;;;;;3.97;3.47;;;;;;;7.40;57.89;94330.00;5012901;28;20217;-64
2022/11/24 11:47:43;;;;;;;4.37;3.97;;;;;;;7.57;57.36;94333.59;5020547;28;20226;-64
2022/11/24 11:50:16;;;;;;;5.00;4.10;;;;;;;7.65;57.14;94348.56;5023159;28;20202;-65